sensor_id;sensor_type;location;lat;lon;timestamp;pressure;altitude;pressure_sealevel;temperature;humidity
73240;BME280;61452;40.054;4.110;2023-02-15T00:02:55;103238.88;;;12.86;52.39
73240;BME280;61452;40.054;4.110;2023-02-15T00:07:57;103235.34;;;12.87;52.53
73240;BME280;61452;40.054;4.110;2023-02-15T00:13:00;103237.13;;;12.87;52.58
73240;BME280;61452;40.054;4.110;2023-02-15T00:18:02;103231.88;;;12.85;52.60
73240;BME280;61452;40.054;4.110;2023-02-15T00:23:04;103222.22;;;12.86;52.48
73240;BME280;61452;40.054;4.110;2023-02-15T00:28:06;103220.47;;;12.85;52.09
73240;BME280;61452;40.054;4.110;2023-02-15T00:33:08;103221.34;;;12.85;52.24
73240;BME280;61452;40.054;4.110;2023-02-15T00:38:11;103222.19;;;12.87;52.27
73240;BME280;61452;40.054;4.110;2023-02-15T00:43:14;103216.03;;;12.87;52.61
73240;BME280;61452;40.054;4.110;2023-02-15T00:48:16;103200.25;;;12.87;52.69
73240;BME280;61452;40.054;4.110;2023-02-15T00:53:19;103203.84;;;12.83;52.74
73240;BME280;61452;40.054;4.110;2023-02-15T00:58:21;103201.16;;;12.84;52.84
73240;BME280;61452;40.054;4.110;2023-02-15T01:03:23;103203.78;;;12.84;52.67
73240;BME280;61452;40.054;4.110;2023-02-15T01:08:26;103196.75;;;12.85;52.44
73240;BME280;61452;40.054;4.110;2023-02-15T01:13:28;103195.00;;;12.85;52.41
73240;BME280;61452;40.054;4.110;2023-02-15T01:18:34;103183.56;;;12.86;52.37
73240;BME280;61452;40.054;4.110;2023-02-15T01:23:36;103169.53;;;12.86;52.57
73240;BME280;61452;40.054;4.110;2023-02-15T01:28:39;103181.84;;;12.84;52.62
73240;BME280;61452;40.054;4.110;2023-02-15T01:33:41;103173.94;;;12.84;52.68
73240;BME280;61452;40.054;4.110;2023-02-15T01:38:44;103160.84;;;12.81;52.67
73240;BME280;61452;40.054;4.110;2023-02-15T01:43:50;103161.72;;;12.83;52.43
73240;BME280;61452;40.054;4.110;2023-02-15T01:49:02;103166.91;;;12.84;52.03
73240;BME280;61452;40.054;4.110;2023-02-15T01:54:15;103162.53;;;12.85;52.44
73240;BME280;61452;40.054;4.110;2023-02-15T01:59:23;103151.97;;;12.85;52.48
73240;BME280;61452;40.054;4.110;2023-02-15T02:04:45;103154.69;;;12.83;52.66
73240;BME280;61452;40.054;4.110;2023-02-15T02:09:52;103148.53;;;12.83;52.77
73240;BME280;61452;40.054;4.110;2023-02-15T02:14:58;103134.50;;;12.82;52.57
73240;BME280;61452;40.054;4.110;2023-02-15T02:41:48;103109.94;;;12.82;52.50
73240;BME280;61452;40.054;4.110;2023-02-15T02:47:33;103102.91;;;12.81;52.50
73240;BME280;61452;40.054;4.110;2023-02-15T02:52:44;103102.91;;;12.81;52.34
73240;BME280;61452;40.054;4.110;2023-02-15T02:58:06;103099.41;;;12.82;52.09
73240;BME280;61452;40.054;4.110;2023-02-15T03:03:17;103100.22;;;12.84;52.35
73240;BME280;61452;40.054;4.110;2023-02-15T03:08:26;103098.44;;;12.84;52.43
73240;BME280;61452;40.054;4.110;2023-02-15T03:13:30;103088.00;;;12.80;52.37
73240;BME280;61452;40.054;4.110;2023-02-15T03:18:41;103101.16;;;12.81;52.22
73240;BME280;61452;40.054;4.110;2023-02-15T03:23:45;103106.44;;;12.81;52.31
73240;BME280;61452;40.054;4.110;2023-02-15T03:28:49;103103.78;;;12.81;52.23
73240;BME280;61452;40.054;4.110;2023-02-15T03:34:02;103102.03;;;12.82;52.01
73240;BME280;61452;40.054;4.110;2023-02-15T03:39:19;103087.09;;;12.82;52.13
73240;BME280;61452;40.054;4.110;2023-02-15T03:44:31;103090.59;;;12.83;52.64
73240;BME280;61452;40.054;4.110;2023-02-15T03:49:48;103087.09;;;12.82;52.67
73240;BME280;61452;40.054;4.110;2023-02-15T03:54:52;103083.63;;;12.80;52.57
73240;BME280;61452;40.054;4.110;2023-02-15T03:59:56;103084.50;;;12.81;52.52
73240;BME280;61452;40.054;4.110;2023-02-15T04:05:16;103073.97;;;12.79;52.43
73240;BME280;61452;40.054;4.110;2023-02-15T04:10:18;103078.34;;;12.80;52.44
73240;BME280;61452;40.054;4.110;2023-02-15T04:15:39;103073.94;;;12.81;52.26
73240;BME280;61452;40.054;4.110;2023-02-15T04:21:01;103090.63;;;12.81;52.58
73240;BME280;61452;40.054;4.110;2023-02-15T04:26:22;103080.97;;;12.80;52.58
73240;BME280;61452;40.054;4.110;2023-02-15T04:31:24;103080.13;;;12.78;52.58
73240;BME280;61452;40.054;4.110;2023-02-15T04:36:26;103077.50;;;12.78;52.61
73240;BME280;61452;40.054;4.110;2023-02-15T04:41:28;103069.59;;;12.78;52.42
73240;BME280;61452;40.054;4.110;2023-02-15T04:46:30;103069.56;;;12.80;52.24
73240;BME280;61452;40.054;4.110;2023-02-15T04:51:32;103062.53;;;12.80;52.28
73240;BME280;61452;40.054;4.110;2023-02-15T04:56:35;103065.19;;;12.80;52.22
73240;BME280;61452;40.054;4.110;2023-02-15T05:01:39;103068.72;;;12.78;52.52
73240;BME280;61452;40.054;4.110;2023-02-15T05:06:41;103074.06;;;12.76;52.32
73240;BME280;61452;40.054;4.110;2023-02-15T05:11:43;103066.09;;;12.78;52.39
73240;BME280;61452;40.054;4.110;2023-02-15T05:16:45;103057.38;;;12.76;52.48
73240;BME280;61452;40.054;4.110;2023-02-15T05:21:48;103062.56;;;12.79;52.17
73240;BME280;61452;40.054;4.110;2023-02-15T05:26:50;103050.44;;;12.72;52.07
73240;BME280;61452;40.054;4.110;2023-02-15T05:32:13;103077.50;;;12.78;52.35
73240;BME280;61452;40.054;4.110;2023-02-15T05:37:15;103075.75;;;12.79;52.40
73240;BME280;61452;40.054;4.110;2023-02-15T05:42:17;103074.00;;;12.78;52.56
73240;BME280;61452;40.054;4.110;2023-02-15T05:47:19;103080.19;;;12.77;52.28
73240;BME280;61452;40.054;4.110;2023-02-15T05:52:21;103080.13;;;12.78;52.20
73240;BME280;61452;40.054;4.110;2023-02-15T05:57:24;103080.13;;;12.78;52.21
73240;BME280;61452;40.054;4.110;2023-02-15T06:02:26;103083.63;;;12.80;52.23
73240;BME280;61452;40.054;4.110;2023-02-15T06:07:28;103067.16;;;12.71;52.34
73240;BME280;61452;40.054;4.110;2023-02-15T06:12:30;103081.91;;;12.78;52.57
73240;BME280;61452;40.054;4.110;2023-02-15T06:17:32;103083.69;;;12.77;52.40
73240;BME280;61452;40.054;4.110;2023-02-15T06:22:35;103088.09;;;12.77;52.41
73240;BME280;61452;40.054;4.110;2023-02-15T06:27:37;103082.88;;;12.74;52.16
73240;BME280;61452;40.054;4.110;2023-02-15T06:32:42;103092.50;;;12.76;52.31
73240;BME280;61452;40.054;4.110;2023-02-15T06:37:45;103097.69;;;12.78;52.28
73240;BME280;61452;40.054;4.110;2023-02-15T06:42:48;103109.09;;;12.80;52.38
73240;BME280;61452;40.054;4.110;2023-02-15T06:47:50;103111.78;;;12.77;52.41
73240;BME280;61452;40.054;4.110;2023-02-15T06:52:57;103111.81;;;12.75;52.57
73240;BME280;61452;40.054;4.110;2023-02-15T06:57:59;103095.31;;;12.66;52.41
73240;BME280;61452;40.054;4.110;2023-02-15T07:03:01;103119.72;;;12.75;52.43
73240;BME280;61452;40.054;4.110;2023-02-15T07:08:04;103120.59;;;12.76;52.42
73240;BME280;61452;40.054;4.110;2023-02-15T07:13:06;103123.19;;;12.77;52.33
73240;BME280;61452;40.054;4.110;2023-02-15T07:18:09;103133.69;;;12.79;52.35
73240;BME280;61452;40.054;4.110;2023-02-15T07:23:12;103143.41;;;12.77;52.33
73240;BME280;61452;40.054;4.110;2023-02-15T07:28:14;103148.66;;;12.77;52.63
73240;BME280;61452;40.054;4.110;2023-02-15T07:33:17;103138.13;;;12.77;52.52
73240;BME280;61452;40.054;4.110;2023-02-15T07:38:27;103146.06;;;12.75;52.24
73240;BME280;61452;40.054;4.110;2023-02-15T07:43:30;103145.19;;;12.75;52.33
73240;BME280;61452;40.054;4.110;2023-02-15T07:48:34;103148.66;;;12.77;52.14
73240;BME280;61452;40.054;4.110;2023-02-15T07:53:38;103148.59;;;12.78;52.38
73240;BME280;61452;40.054;4.110;2023-02-15T07:58:40;103149.53;;;12.77;52.29
73240;BME280;61452;40.054;4.110;2023-02-15T08:03:54;103153.94;;;12.75;52.48
73240;BME280;61452;40.054;4.110;2023-02-15T08:08:57;103146.91;;;12.76;52.25
73240;BME280;61452;40.054;4.110;2023-02-15T08:14:08;103155.72;;;12.75;52.26
73240;BME280;61452;40.054;4.110;2023-02-15T08:24:21;103156.50;;;12.78;52.10
73240;BME280;61452;40.054;4.110;2023-02-15T08:29:26;103150.44;;;12.76;52.26
73240;BME280;61452;40.054;4.110;2023-02-15T08:34:31;103155.63;;;12.78;52.14
73240;BME280;61452;40.054;4.110;2023-02-15T08:39:33;103155.72;;;12.75;52.28
73240;BME280;61452;40.054;4.110;2023-02-15T08:44:36;103150.44;;;12.75;52.12
73240;BME280;61452;40.054;4.110;2023-02-15T08:49:38;103156.59;;;12.74;52.02
73240;BME280;61452;40.054;4.110;2023-02-15T08:54:40;103150.44;;;12.76;51.97
73240;BME280;61452;40.054;4.110;2023-02-15T08:59:42;103155.63;;;12.78;52.02
73240;BME280;61452;40.054;4.110;2023-02-15T09:04:45;103153.88;;;12.78;52.21
73240;BME280;61452;40.054;4.110;2023-02-15T09:09:47;103162.69;;;12.77;52.31
73240;BME280;61452;40.054;4.110;2023-02-15T09:14:49;103163.59;;;12.76;52.43
73240;BME280;61452;40.054;4.110;2023-02-15T09:19:51;103167.09;;;12.77;52.11
73240;BME280;61452;40.054;4.110;2023-02-15T09:24:53;103163.63;;;12.75;52.23
73240;BME280;61452;40.054;4.110;2023-02-15T09:29:55;103164.47;;;12.77;51.83
73240;BME280;61452;40.054;4.110;2023-02-15T09:34:58;103160.88;;;12.79;51.93
73240;BME280;61452;40.054;4.110;2023-02-15T09:40:00;103166.16;;;12.79;52.17
73240;BME280;61452;40.054;4.110;2023-02-15T09:45:13;103166.16;;;12.79;52.24
73240;BME280;61452;40.054;4.110;2023-02-15T10:28:12;103180.22;;;12.78;52.50
73240;BME280;61452;40.054;4.110;2023-02-15T10:33:38;103177.56;;;12.78;52.22
73240;BME280;61452;40.054;4.110;2023-02-15T10:39:02;103175.88;;;12.77;52.27
73240;BME280;61452;40.054;4.110;2023-02-15T11:05:00;103167.03;;;12.78;52.81
73240;BME280;61452;40.054;4.110;2023-02-15T11:10:30;103158.22;;;12.81;52.61
73240;BME280;61452;40.054;4.110;2023-02-15T11:15:49;103151.19;;;12.81;52.35
73240;BME280;61452;40.054;4.110;2023-02-15T11:21:22;103141.50;;;12.83;52.20
73240;BME280;61452;40.054;4.110;2023-02-15T11:31:46;103139.72;;;12.84;52.65
73240;BME280;61452;40.054;4.110;2023-02-15T11:36:51;103120.47;;;12.82;52.46
73240;BME280;61452;40.054;4.110;2023-02-15T11:41:59;103124.84;;;12.83;52.48
73240;BME280;61452;40.054;4.110;2023-02-15T11:47:02;103118.69;;;12.82;52.36
73240;BME280;61452;40.054;4.110;2023-02-15T11:52:07;103120.38;;;12.85;52.34
73240;BME280;61452;40.054;4.110;2023-02-15T11:57:34;103107.22;;;12.85;52.11
73240;BME280;61452;40.054;4.110;2023-02-15T12:02:43;103108.94;;;12.86;52.54
73240;BME280;61452;40.054;4.110;2023-02-15T12:07:52;103089.66;;;12.85;52.72
73240;BME280;61452;40.054;4.110;2023-02-15T12:13:19;103085.28;;;12.84;52.86
73240;BME280;61452;40.054;4.110;2023-02-15T12:18:37;103078.25;;;12.85;52.72
73240;BME280;61452;40.054;4.110;2023-02-15T12:23:49;103081.75;;;12.85;52.58
73240;BME280;61452;40.054;4.110;2023-02-15T12:28:53;103075.59;;;12.86;52.49
73240;BME280;61452;40.054;4.110;2023-02-15T12:33:57;103070.28;;;12.88;52.41
73240;BME280;61452;40.054;4.110;2023-02-15T12:44:16;103058.00;;;12.88;52.91
73240;BME280;61452;40.054;4.110;2023-02-15T12:49:22;103053.66;;;12.86;53.20
73240;BME280;61452;40.054;4.110;2023-02-15T12:59:26;103047.47;;;12.88;53.13
73240;BME280;61452;40.054;4.110;2023-02-15T13:04:29;103043.94;;;12.88;52.51
73240;BME280;61452;40.054;4.110;2023-02-15T13:14:33;103028.97;;;12.90;52.76
73240;BME280;61452;40.054;4.110;2023-02-15T13:19:42;103028.94;;;12.91;53.00
73240;BME280;61452;40.054;4.110;2023-02-15T13:24:52;103028.97;;;12.90;52.84
73240;BME280;61452;40.054;4.110;2023-02-15T13:29:58;103027.19;;;12.90;52.94
73240;BME280;61452;40.054;4.110;2023-02-15T13:35:05;103020.22;;;12.89;52.85
73240;BME280;61452;40.054;4.110;2023-02-15T13:40:20;103021.91;;;12.92;52.61
73240;BME280;61452;40.054;4.110;2023-02-15T13:45:32;103025.41;;;12.92;52.73
73240;BME280;61452;40.054;4.110;2023-02-15T14:12:19;103005.22;;;12.91;52.78
73240;BME280;61452;40.054;4.110;2023-02-15T14:22:42;103005.19;;;12.94;52.66
73240;BME280;61452;40.054;4.110;2023-02-15T14:33:11;102990.25;;;12.95;52.99
73240;BME280;61452;40.054;4.110;2023-02-15T14:49:04;102987.63;;;12.93;52.73
73240;BME280;61452;40.054;4.110;2023-02-15T14:59:23;102987.53;;;12.98;52.76
73240;BME280;61452;40.054;4.110;2023-02-15T15:09:32;102983.16;;;12.97;53.06
73240;BME280;61452;40.054;4.110;2023-02-15T15:14:38;102988.41;;;12.97;53.14
73240;BME280;61452;40.054;4.110;2023-02-15T15:24:57;102987.53;;;12.98;53.06
73240;BME280;61452;40.054;4.110;2023-02-15T15:29:59;102986.63;;;12.99;52.88
73240;BME280;61452;40.054;4.110;2023-02-15T15:35:34;102981.31;;;13.01;52.72
73240;BME280;61452;40.054;4.110;2023-02-15T15:50:45;102997.13;;;13.01;53.51
73240;BME280;61452;40.054;4.110;2023-02-15T15:55:59;103005.03;;;13.01;53.35
73240;BME280;61452;40.054;4.110;2023-02-15T16:01:08;103005.91;;;13.01;53.15
73240;BME280;61452;40.054;4.110;2023-02-15T16:06:13;103005.03;;;13.01;53.10
73240;BME280;61452;40.054;4.110;2023-02-15T16:11:21;103019.00;;;13.04;52.85
73240;BME280;61452;40.054;4.110;2023-02-15T16:16:27;103019.00;;;13.04;53.24
73240;BME280;61452;40.054;4.110;2023-02-15T16:21:32;103013.75;;;13.03;53.30
73240;BME280;61452;40.054;4.110;2023-02-15T16:26:59;103003.28;;;13.01;53.10
73240;BME280;61452;40.054;4.110;2023-02-15T16:32:19;103019.00;;;13.03;52.98
73240;BME280;61452;40.054;4.110;2023-02-15T16:37:25;103010.28;;;13.02;52.87
73240;BME280;61452;40.054;4.110;2023-02-15T16:42:29;103006.91;;;12.95;52.94
73240;BME280;61452;40.054;4.110;2023-02-15T16:47:33;103015.47;;;13.05;52.54
73240;BME280;61452;40.054;4.110;2023-02-15T16:52:43;103028.63;;;13.05;52.83
73240;BME280;61452;40.054;4.110;2023-02-15T16:57:45;103025.13;;;13.05;53.11
73240;BME280;61452;40.054;4.110;2023-02-15T17:08:27;103028.66;;;13.04;52.90
73240;BME280;61452;40.054;4.110;2023-02-15T17:13:30;103036.53;;;13.05;52.76
73240;BME280;61452;40.054;4.110;2023-02-15T17:18:43;103031.28;;;13.05;52.62
73240;BME280;61452;40.054;4.110;2023-02-15T17:23:48;103035.63;;;13.08;52.46
73240;BME280;61452;40.054;4.110;2023-02-15T17:28:56;103049.66;;;13.08;52.65
73240;BME280;61452;40.054;4.110;2023-02-15T17:34:00;103050.56;;;13.07;52.83
73240;BME280;61452;40.054;4.110;2023-02-15T17:39:19;103055.84;;;13.06;52.99
73240;BME280;61452;40.054;4.110;2023-02-15T17:44:22;103058.47;;;13.06;52.69
73240;BME280;61452;40.054;4.110;2023-02-15T17:49:25;103055.84;;;13.06;52.64
73240;BME280;61452;40.054;4.110;2023-02-15T17:54:36;103067.22;;;13.08;52.36
73240;BME280;61452;40.054;4.110;2023-02-15T17:59:57;103066.31;;;13.09;52.39
73240;BME280;61452;40.054;4.110;2023-02-15T18:05:17;103066.34;;;13.07;52.76
73240;BME280;61452;40.054;4.110;2023-02-15T18:10:38;103078.63;;;13.08;52.77
73240;BME280;61452;40.054;4.110;2023-02-15T18:15:59;103074.25;;;13.07;52.62
73240;BME280;61452;40.054;4.110;2023-02-15T18:21:01;103073.50;;;13.02;52.57
73240;BME280;61452;40.054;4.110;2023-02-15T18:26:04;103082.16;;;13.07;52.41
73240;BME280;61452;40.054;4.110;2023-02-15T18:31:07;103073.38;;;13.07;52.35
73240;BME280;61452;40.054;4.110;2023-02-15T18:36:15;103075.06;;;13.09;52.47
73240;BME280;61452;40.054;4.110;2023-02-15T18:41:19;103076.81;;;13.10;52.70
73240;BME280;61452;40.054;4.110;2023-02-15T18:46:22;103082.09;;;13.09;52.83
73240;BME280;61452;40.054;4.110;2023-02-15T18:51:25;103088.31;;;13.08;52.96
73240;BME280;61452;40.054;4.110;2023-02-15T18:56:29;103083.91;;;13.08;52.87
73240;BME280;61452;40.054;4.110;2023-02-15T19:01:31;103080.41;;;13.08;52.83
73240;BME280;61452;40.054;4.110;2023-02-15T19:06:34;103091.75;;;13.10;52.65
73240;BME280;61452;40.054;4.110;2023-02-15T19:11:36;103094.34;;;13.11;52.40
73240;BME280;61452;40.054;4.110;2023-02-15T19:16:39;103099.63;;;13.11;52.55
73240;BME280;61452;40.054;4.110;2023-02-15T19:21:41;103098.78;;;13.09;52.92
73240;BME280;61452;40.054;4.110;2023-02-15T19:26:44;103111.97;;;13.09;52.81
73240;BME280;61452;40.054;4.110;2023-02-15T19:31:47;103108.44;;;13.09;52.76
73240;BME280;61452;40.054;4.110;2023-02-15T19:36:51;103104.06;;;13.09;52.69
73240;BME280;61452;40.054;4.110;2023-02-15T19:41:54;103104.03;;;13.11;52.46
73240;BME280;61452;40.054;4.110;2023-02-15T19:46:56;103107.53;;;13.11;52.45
73240;BME280;61452;40.054;4.110;2023-02-15T19:51:59;103108.41;;;13.12;52.73
73240;BME280;61452;40.054;4.110;2023-02-15T19:57:01;103104.94;;;13.10;52.77
73240;BME280;61452;40.054;4.110;2023-02-15T20:02:03;103106.69;;;13.09;52.81
73240;BME280;61452;40.054;4.110;2023-02-15T20:07:20;103112.88;;;13.08;52.71
73240;BME280;61452;40.054;4.110;2023-02-15T20:12:25;103104.94;;;13.10;52.61
73240;BME280;61452;40.054;4.110;2023-02-15T20:17:29;103106.66;;;13.12;52.30
73240;BME280;61452;40.054;4.110;2023-02-15T20:22:31;103112.81;;;13.13;52.20
73240;BME280;61452;40.054;4.110;2023-02-15T20:27:34;103110.16;;;13.11;52.58
73240;BME280;61452;40.054;4.110;2023-02-15T20:32:38;103113.69;;;13.12;52.43
73240;BME280;61452;40.054;4.110;2023-02-15T20:37:40;103111.97;;;13.09;52.67
73240;BME280;61452;40.054;4.110;2023-02-15T20:42:44;103114.59;;;13.09;52.41
73240;BME280;61452;40.054;4.110;2023-02-15T20:47:48;103120.78;;;13.08;52.30
73240;BME280;61452;40.054;4.110;2023-02-15T20:52:52;103112.81;;;13.11;52.19
73240;BME280;61452;40.054;4.110;2023-02-15T20:57:56;103108.41;;;13.12;52.19
73240;BME280;61452;40.054;4.110;2023-02-15T21:03:00;103113.69;;;13.10;52.74
73240;BME280;61452;40.054;4.110;2023-02-15T21:08:11;103104.94;;;13.10;52.73
73240;BME280;61452;40.054;4.110;2023-02-15T21:13:26;103111.97;;;13.09;52.52
73240;BME280;61452;40.054;4.110;2023-02-15T21:18:31;103112.81;;;13.10;52.52
73240;BME280;61452;40.054;4.110;2023-02-15T21:23:36;103107.56;;;13.10;52.31
73240;BME280;61452;40.054;4.110;2023-02-15T21:28:40;103109.31;;;13.09;52.41
73240;BME280;61452;40.054;4.110;2023-02-15T21:33:42;103117.22;;;13.09;52.40
73240;BME280;61452;40.054;4.110;2023-02-15T21:38:45;103116.34;;;13.10;52.28
73240;BME280;61452;40.054;4.110;2023-02-15T21:43:48;103117.22;;;13.09;52.40
73240;BME280;61452;40.054;4.110;2023-02-15T21:49:10;103118.06;;;13.11;52.32
73240;BME280;61452;40.054;4.110;2023-02-15T21:54:14;103114.56;;;13.12;52.09
73240;BME280;61452;40.054;4.110;2023-02-15T21:59:17;103121.59;;;13.13;52.13
73240;BME280;61452;40.054;4.110;2023-02-15T22:04:27;103120.72;;;13.13;52.31
73240;BME280;61452;40.054;4.110;2023-02-15T22:09:29;103115.44;;;13.11;52.41
73240;BME280;61452;40.054;4.110;2023-02-15T22:19:37;103119.81;;;13.14;52.73
73240;BME280;61452;40.054;4.110;2023-02-15T22:24:40;103111.03;;;13.13;52.78
73240;BME280;61452;40.054;4.110;2023-02-15T22:29:42;103104.94;;;13.10;52.77
73240;BME280;61452;40.054;4.110;2023-02-15T22:34:45;103109.31;;;13.09;52.85
73240;BME280;61452;40.054;4.110;2023-02-15T22:39:48;103091.00;;;13.03;52.67
73240;BME280;61452;40.054;4.110;2023-02-15T22:44:52;103103.19;;;13.09;52.81
73240;BME280;61452;40.054;4.110;2023-02-15T22:49:54;103119.84;;;13.11;52.78
73240;BME280;61452;40.054;4.110;2023-02-15T22:54:57;103114.59;;;13.09;52.72
73240;BME280;61452;40.054;4.110;2023-02-15T22:59:59;103116.34;;;13.09;52.67
73240;BME280;61452;40.054;4.110;2023-02-15T23:05:02;103111.97;;;13.09;52.62
73240;BME280;61452;40.054;4.110;2023-02-15T23:10:04;103111.97;;;13.09;52.51
73240;BME280;61452;40.054;4.110;2023-02-15T23:15:10;103117.19;;;13.11;52.33
73240;BME280;61452;40.054;4.110;2023-02-15T23:20:14;103119.84;;;13.12;52.45
73240;BME280;61452;40.054;4.110;2023-02-15T23:25:16;103111.06;;;13.10;52.51
73240;BME280;61452;40.054;4.110;2023-02-15T23:30:19;103104.91;;;13.11;52.55
73240;BME280;61452;40.054;4.110;2023-02-15T23:35:22;103108.41;;;13.12;52.63
73240;BME280;61452;40.054;4.110;2023-02-15T23:40:24;103103.13;;;13.12;52.80
73240;BME280;61452;40.054;4.110;2023-02-15T23:45:45;103100.50;;;13.12;52.69
73240;BME280;61452;40.054;4.110;2023-02-15T23:50:47;103107.56;;;13.10;52.89
73240;BME280;61452;40.054;4.110;2023-02-15T23:55:50;103110.19;;;13.10;52.92
